Time;durP1;ratioP1;P1;durP2;ratioP2;P2;SDS_P1;SDS_P2;PMS_P1;PMS_P2;Temp;Humidity;BMP_temperature;BMP_pressure;BME280_temperature;BME280_humidity;BME280_pressure;Samples;Min_cycle;Max_cycle;Signal;HPM_P1;HPM_P2
2022/04/20 00:00:09;;;;;;;3.90;1.30;;;13.50;35.40;;;;;;4999816;28;20525;-43
2022/04/20 00:02:36;;;;;;;2.33;1.38;;;13.50;35.50;;;;;;4998511;28;20058;-42
2022/04/20 00:05:06;;;;;;;2.00;1.50;;;13.50;35.60;;;;;;5001531;28;20054;-43
2022/04/20 00:07:33;;;;;;;2.38;1.60;;;13.40;35.60;;;;;;5001967;28;20061;-44
2022/04/20 00:10:01;;;;;;;3.15;1.67;;;13.40;35.60;;;;;;5000085;28;20065;-43
2022/04/20 00:12:29;;;;;;;2.85;1.42;;;13.40;35.70;;;;;;4998194;28;20050;-42
2022/04/20 00:14:56;;;;;;;3.67;1.77;;;13.30;35.70;;;;;;5002703;28;20045;-42
2022/04/20 00:17:23;;;;;;;4.43;1.92;;;13.30;35.80;;;;;;5002072;28;20061;-42
2022/04/20 00:19:51;;;;;;;2.45;1.38;;;13.30;36.00;;;;;;5003869;28;20406;-42
2022/04/20 00:22:19;;;;;;;2.20;1.50;;;13.20;36.10;;;;;;4999921;28;20054;-43
2022/04/20 00:24:47;;;;;;;3.17;1.92;;;13.20;36.10;;;;;;4999863;28;20393;-42
2022/04/20 00:27:14;;;;;;;1.80;1.17;;;13.10;36.20;;;;;;5001172;28;20062;-42
2022/04/20 00:29:42;;;;;;;3.15;1.58;;;13.10;36.20;;;;;;5001646;28;20494;-42
2022/04/20 00:32:10;;;;;;;3.00;2.15;;;13.10;36.20;;;;;;4997859;28;20066;-44
2022/04/20 00:34:37;;;;;;;2.03;1.45;;;13.00;36.20;;;;;;5001334;28;20058;-42
2022/04/20 00:37:05;;;;;;;2.70;1.65;;;13.00;36.20;;;;;;5001751;28;20513;-42
2022/04/20 00:39:36;;;;;;;3.58;1.77;;;13.00;36.30;;;;;;5002261;28;20058;-46
2022/04/20 00:42:04;;;;;;;3.33;1.60;;;13.00;36.40;;;;;;4998937;28;20060;-43
2022/04/20 00:44:32;;;;;;;2.42;1.58;;;12.90;36.50;;;;;;5001003;28;20054;-42
2022/04/20 00:47:02;;;;;;;3.58;1.50;;;12.90;36.50;;;;;;5001316;28;20065;-42
2022/04/20 00:49:31;;;;;;;3.63;1.70;;;12.90;36.50;;;;;;4999043;28;20054;-42
2022/04/20 00:51:59;;;;;;;2.30;1.70;;;12.80;36.50;;;;;;4998424;28;20061;-42
2022/04/20 00:54:26;;;;;;;2.35;1.63;;;12.80;36.60;;;;;;5000825;28;20422;-42
2022/04/20 00:56:55;;;;;;;2.17;1.50;;;12.70;36.60;;;;;;5001143;28;20435;-44
2022/04/20 00:59:26;;;;;;;2.08;1.60;;;12.70;36.80;;;;;;5001527;28;20050;-43
2022/04/20 01:01:54;;;;;;;3.72;1.73;;;12.70;36.90;;;;;;4997316;28;20077;-45
2022/04/20 01:04:21;;;;;;;2.60;1.58;;;12.70;36.90;;;;;;5002091;28;20054;-43
2022/04/20 01:06:49;;;;;;;2.15;1.50;;;12.60;36.80;;;;;;5001269;28;20057;-45
2022/04/20 01:09:17;;;;;;;2.65;1.70;;;12.60;36.90;;;;;;4998636;28;20056;-42
2022/04/20 01:11:45;;;;;;;2.38;1.67;;;12.60;37.00;;;;;;4997079;28;20065;-43
2022/04/20 01:14:14;;;;;;;1.85;1.42;;;12.50;37.10;;;;;;5001035;28;20053;-42
2022/04/20 01:16:41;;;;;;;5.00;1.77;;;12.50;37.20;;;;;;5000907;28;20057;-44
2022/04/20 01:19:09;;;;;;;2.20;1.35;;;12.50;37.20;;;;;;5002122;28;20421;-43
2022/04/20 01:21:37;;;;;;;2.20;1.60;;;12.40;37.20;;;;;;4998794;28;20054;-42
2022/04/20 01:24:06;;;;;;;2.08;1.42;;;12.50;37.30;;;;;;5000724;28;20391;-44
2022/04/20 01:26:34;;;;;;;2.63;1.70;;;12.40;37.30;;;;;;4998591;28;20410;-42
2022/04/20 01:29:03;;;;;;;4.15;1.80;;;12.40;37.40;;;;;;5000344;28;20510;-42
2022/04/20 01:31:31;;;;;;;3.47;1.80;;;12.30;37.40;;;;;;4998201;28;20057;-42
2022/04/20 01:33:59;;;;;;;3.25;1.80;;;12.30;37.50;;;;;;4982505;28;20050;-42
2022/04/20 01:36:26;;;;;;;2.05;1.55;;;12.30;37.50;;;;;;4999314;28;20054;-43
2022/04/20 01:38:55;;;;;;;2.58;1.50;;;12.30;37.60;;;;;;4993049;28;20409;-43
2022/04/20 01:41:23;;;;;;;2.85;1.98;;;12.20;37.60;;;;;;4997931;28;20057;-43
2022/04/20 01:43:50;;;;;;;3.03;1.75;;;12.20;38.00;;;;;;5000163;28;20498;-42
2022/04/20 01:46:18;;;;;;;6.40;1.90;;;12.20;37.60;;;;;;4998160;28;20053;-43
2022/04/20 01:48:45;;;;;;;2.55;1.95;;;12.10;37.60;;;;;;4997101;28;20426;-42
2022/04/20 01:53:59;;;;;;;2.05;1.40;;;12.10;37.60;;;;;;5006635;28;20065;-42
2022/04/20 01:56:27;;;;;;;3.78;1.88;;;12.00;37.70;;;;;;4999507;28;20074;-45
2022/04/20 01:58:54;;;;;;;1.92;1.30;;;12.00;37.80;;;;;;5000799;28;20414;-44
2022/04/20 02:04:07;;;;;;;2.35;1.40;;;11.90;37.90;;;;;;5006354;28;20068;-42
2022/04/20 02:06:34;;;;;;;6.85;2.10;;;11.90;38.00;;;;;;4999853;28;20076;-43
2022/04/20 02:09:03;;;;;;;2.33;1.60;;;11.90;38.10;;;;;;4996334;28;20050;-45
2022/04/20 02:11:31;;;;;;;2.35;1.88;;;11.80;38.10;;;;;;4997995;28;20053;-42
2022/04/20 02:13:59;;;;;;;3.30;1.80;;;11.80;38.10;;;;;;5001645;28;20049;-42
2022/04/20 02:16:26;;;;;;;2.38;1.92;;;11.70;38.10;;;;;;5001760;28;20065;-44
2022/04/20 02:18:54;;;;;;;4.63;2.10;;;11.70;38.20;;;;;;5001191;28;20054;-44
2022/04/20 02:21:21;;;;;;;4.00;1.70;;;11.70;38.30;;;;;;5000643;28;20058;-45
2022/04/20 02:23:49;;;;;;;3.20;1.90;;;11.60;38.40;;;;;;5001430;28;20540;-42
2022/04/20 02:26:17;;;;;;;3.78;1.80;;;11.60;38.40;;;;;;5000792;28;20058;-43
2022/04/20 02:28:45;;;;;;;2.35;2.03;;;11.60;38.40;;;;;;4998193;28;20062;-44
2022/04/20 02:31:12;;;;;;;3.33;2.00;;;11.50;38.30;;;;;;5000635;28;20506;-43
2022/04/20 02:33:42;;;;;;;4.20;1.90;;;11.50;38.30;;;;;;5000083;28;20050;-43
2022/04/20 02:36:10;;;;;;;4.80;1.75;;;11.50;38.30;;;;;;5001631;28;20057;-43
2022/04/20 02:38:38;;;;;;;3.22;1.80;;;11.50;38.30;;;;;;5000654;28;20057;-42
2022/04/20 02:41:06;;;;;;;2.78;1.73;;;11.50;38.40;;;;;;5000595;28;20058;-42
2022/04/20 02:43:35;;;;;;;2.83;1.60;;;11.40;38.50;;;;;;5000174;28;20147;-43
2022/04/20 02:46:03;;;;;;;3.50;2.00;;;11.40;38.60;;;;;;5001657;28;20329;-42
2022/04/20 02:48:30;;;;;;;3.42;1.88;;;11.40;38.60;;;;;;5002320;28;20057;-42
2022/04/20 02:50:58;;;;;;;2.75;1.85;;;11.40;38.70;;;;;;5005788;28;20050;-43
2022/04/20 02:53:25;;;;;;;5.25;1.67;;;11.30;38.70;;;;;;5001800;28;20057;-47
2022/04/20 02:55:53;;;;;;;2.78;1.90;;;11.30;38.80;;;;;;5004273;28;20053;-43
2022/04/20 02:58:20;;;;;;;6.78;1.83;;;11.20;38.80;;;;;;5004780;28;20505;-43
2022/04/20 03:00:49;;;;;;;5.43;2.10;;;11.20;38.80;;;;;;5005580;28;20053;-42
2022/04/20 03:03:16;;;;;;;3.40;1.92;;;11.20;39.00;;;;;;5003116;28;20421;-42
2022/04/20 03:05:44;;;;;;;6.63;2.47;;;11.10;39.00;;;;;;5004966;28;20053;-46
2022/04/20 03:08:11;;;;;;;4.28;1.98;;;11.10;39.10;;;;;;5002799;28;20441;-46
2022/04/20 03:10:39;;;;;;;3.78;2.00;;;11.10;39.10;;;;;;5004208;28;20409;-43
2022/04/20 03:13:07;;;;;;;2.60;1.73;;;11.00;39.10;;;;;;5002342;28;20054;-42
2022/04/20 03:15:34;;;;;;;2.83;1.90;;;11.00;39.10;;;;;;5004957;28;20755;-42
2022/04/20 03:18:03;;;;;;;2.85;2.17;;;11.00;39.20;;;;;;5004225;28;20526;-42
2022/04/20 03:20:31;;;;;;;4.60;2.13;;;10.90;39.20;;;;;;5003887;28;20065;-43
2022/04/20 03:22:58;;;;;;;3.03;2.00;;;10.90;39.30;;;;;;5002779;28;20597;-43
2022/04/20 03:25:26;;;;;;;2.90;1.80;;;10.90;39.40;;;;;;5004005;28;20050;-43
2022/04/20 03:27:53;;;;;;;5.40;1.92;;;10.80;39.40;;;;;;5003265;28;20065;-42
2022/04/20 03:30:21;;;;;;;3.95;1.98;;;10.80;39.50;;;;;;5004030;28;20065;-42
2022/04/20 03:32:48;;;;;;;3.47;1.60;;;10.70;39.50;;;;;;5002346;28;20045;-45
2022/04/20 03:35:17;;;;;;;2.72;1.80;;;10.80;39.70;;;;;;5004206;28;20490;-42
2022/04/20 03:37:45;;;;;;;2.72;1.85;;;10.70;39.80;;;;;;5003881;28;20065;-42
2022/04/20 03:40:13;;;;;;;3.95;1.90;;;10.70;39.80;;;;;;5003857;28;20065;-44
2022/04/20 03:42:42;;;;;;;3.92;1.90;;;10.70;39.80;;;;;;5001536;28;20058;-43
2022/04/20 03:45:09;;;;;;;3.47;2.08;;;10.60;39.80;;;;;;5004003;28;20733;-43
2022/04/20 03:47:37;;;;;;;2.28;1.70;;;10.60;40.00;;;;;;5004244;28;20414;-42
2022/04/20 03:50:06;;;;;;;3.28;2.10;;;10.60;40.20;;;;;;5001517;28;20138;-42
2022/04/20 03:52:34;;;;;;;2.90;1.50;;;10.60;40.30;;;;;;5001872;28;20512;-44
2022/04/20 03:55:02;;;;;;;4.00;2.20;;;10.50;40.30;;;;;;5003196;28;20397;-46
2022/04/20 03:57:29;;;;;;;3.65;2.17;;;10.50;40.30;;;;;;5003643;28;20077;-42
2022/04/20 03:59:57;;;;;;;2.15;1.70;;;10.50;40.50;;;;;;5003403;28;20054;-43
2022/04/20 04:02:24;;;;;;;2.72;1.77;;;10.40;40.50;;;;;;5002067;28;20058;-43
2022/04/20 04:04:52;;;;;;;6.30;2.22;;;10.50;40.60;;;;;;5004332;28;20061;-42
2022/04/20 04:07:19;;;;;;;3.00;2.20;;;10.40;40.70;;;;;;5002746;28;20064;-42
2022/04/20 04:09:48;;;;;;;2.50;1.80;;;10.40;40.80;;;;;;5000577;28;20061;-42
2022/04/20 04:12:15;;;;;;;4.10;2.08;;;10.40;40.90;;;;;;5000517;28;20050;-42
2022/04/20 04:14:44;;;;;;;5.50;2.40;;;10.40;40.90;;;;;;5003585;28;20058;-43
2022/04/20 04:17:11;;;;;;;3.67;1.95;;;10.40;40.90;;;;;;4991939;28;20072;-42
2022/04/20 04:19:38;;;;;;;4.13;2.33;;;10.30;40.90;;;;;;5000140;28;20057;-42
2022/04/20 04:22:06;;;;;;;7.55;2.58;;;10.30;40.90;;;;;;5001575;28;20521;-42
2022/04/20 04:24:37;;;;;;;3.63;1.95;;;10.30;41.00;;;;;;5003280;28;20422;-42
2022/04/20 04:27:07;;;;;;;3.78;2.15;;;10.30;41.00;;;;;;5001122;28;20064;-42
2022/04/20 04:29:35;;;;;;;5.70;2.10;;;10.20;41.10;;;;;;5002725;28;20410;-42
2022/04/20 04:32:03;;;;;;;3.70;1.85;;;10.20;41.10;;;;;;5002143;28;20505;-42
2022/04/20 04:34:30;;;;;;;2.63;1.73;;;10.20;41.20;;;;;;5001343;28;20524;-43
2022/04/20 04:37:00;;;;;;;3.97;1.83;;;10.20;41.30;;;;;;5003376;28;20049;-42
2022/04/20 04:39:29;;;;;;;5.10;2.10;;;10.10;41.40;;;;;;5000786;28;20519;-42
2022/04/20 04:42:02;;;;;;;4.03;2.03;;;10.10;41.50;;;;;;4997185;28;20425;-42
2022/04/20 04:44:32;;;;;;;5.50;2.15;;;10.10;41.40;;;;;;4998425;28;20057;-43
2022/04/20 04:49:45;;;;;;;4.10;1.88;;;10.10;41.50;;;;;;5003107;28;20061;-42
2022/04/20 04:52:12;;;;;;;3.45;1.83;;;10.10;41.50;;;;;;4999928;28;20504;-42
2022/04/20 04:54:41;;;;;;;6.80;2.28;;;10.10;41.70;;;;;;4999064;28;20050;-45
2022/04/20 04:57:09;;;;;;;8.00;2.05;;;10.00;41.90;;;;;;5000208;28;20436;-42
2022/04/20 04:59:39;;;;;;;4.28;1.83;;;10.10;41.90;;;;;;5000732;28;20061;-43
2022/04/20 05:02:07;;;;;;;10.95;5.47;;;10.10;41.90;;;;;;5003123;28;20073;-44
2022/04/20 05:04:35;;;;;;;10.45;3.92;;;10.10;42.00;;;;;;5002185;28;20482;-42
2022/04/20 05:07:04;;;;;;;8.32;2.80;;;10.10;42.30;;;;;;4995658;28;20068;-42
2022/04/20 05:09:31;;;;;;;3.67;2.33;;;10.10;42.20;;;;;;5001082;28;20053;-43
2022/04/20 05:11:59;;;;;;;5.13;2.58;;;10.10;42.10;;;;;;5002024;28;20076;-42
2022/04/20 05:14:26;;;;;;;4.28;2.00;;;10.10;42.10;;;;;;4999384;28;22476;-42
2022/04/20 05:16:59;;;;;;;5.18;1.90;;;10.10;42.10;;;;;;5000231;28;20082;-43
2022/04/20 05:19:29;;;;;;;4.28;2.67;;;10.10;42.20;;;;;;5001576;28;20391;-42
2022/04/20 05:21:57;;;;;;;6.75;2.33;;;10.20;42.20;;;;;;5002490;28;20057;-42
2022/04/20 05:24:24;;;;;;;4.10;1.80;;;10.20;42.20;;;;;;5002050;28;20092;-46
2022/04/20 05:26:52;;;;;;;3.22;2.05;;;10.20;42.30;;;;;;5001179;28;20053;-42
2022/04/20 05:29:19;;;;;;;4.40;2.30;;;10.20;42.40;;;;;;5002790;28;20463;-42
2022/04/20 05:31:51;;;;;;;5.35;2.10;;;10.30;42.60;;;;;;5002153;28;20054;-42
2022/04/20 05:34:23;;;;;;;2.97;1.73;;;10.30;42.60;;;;;;5002528;28;20216;-42
2022/04/20 05:42:19;;;;;;;4.55;2.53;;;10.40;42.40;;;;;;5005668;28;20069;-42
2022/04/20 05:44:48;;;;;;;6.03;2.42;;;10.40;42.50;;;;;;5000858;28;20116;-43
2022/04/20 05:47:15;;;;;;;2.95;1.60;;;10.40;42.50;;;;;;4997747;28;20054;-44
2022/04/20 05:49:44;;;;;;;9.32;2.28;;;10.50;42.60;;;;;;5001144;28;20417;-43
2022/04/20 05:52:11;;;;;;;7.53;2.15;;;10.50;42.70;;;;;;5000967;28;20421;-42
2022/04/20 05:54:39;;;;;;;4.63;2.17;;;10.50;42.70;;;;;;4999755;28;20049;-44
2022/04/20 05:57:06;;;;;;;3.22;1.90;;;10.60;42.70;;;;;;5001355;28;20054;-42
2022/04/20 05:59:34;;;;;;;2.63;1.63;;;10.70;42.70;;;;;;5002185;28;20053;-42
2022/04/20 06:02:01;;;;;;;2.85;1.92;;;10.70;42.70;;;;;;5001782;28;20069;-42
2022/04/20 06:04:31;;;;;;;4.72;2.20;;;10.80;42.80;;;;;;5001934;28;20065;-43
2022/04/20 06:07:00;;;;;;;6.13;2.15;;;10.80;42.90;;;;;;4999208;28;20061;-42
2022/04/20 06:09:28;;;;;;;3.35;1.90;;;10.90;42.80;;;;;;5001662;28;20053;-43
2022/04/20 06:11:55;;;;;;;3.33;1.95;;;11.00;42.70;;;;;;4999059;28;20050;-43
2022/04/20 06:14:24;;;;;;;3.65;2.22;;;11.00;42.70;;;;;;5001721;28;20502;-42
2022/04/20 06:16:51;;;;;;;6.70;2.05;;;11.10;42.80;;;;;;4998530;28;20062;-42
2022/04/20 06:19:18;;;;;;;4.85;1.90;;;11.10;42.80;;;;;;5001551;28;20058;-43
2022/04/20 06:21:46;;;;;;;5.30;1.90;;;11.20;42.80;;;;;;4999427;28;20863;-42
2022/04/20 06:24:15;;;;;;;2.90;2.20;;;11.30;42.90;;;;;;5000373;28;20072;-42
2022/04/20 06:26:42;;;;;;;7.95;2.00;;;11.30;42.80;;;;;;4999985;28;20482;-42
2022/04/20 06:29:10;;;;;;;4.10;2.08;;;11.40;42.80;;;;;;4996488;28;20062;-43
2022/04/20 06:31:39;;;;;;;2.95;2.00;;;11.50;42.80;;;;;;4999686;28;20045;-42
2022/04/20 06:34:07;;;;;;;3.70;1.95;;;11.50;42.90;;;;;;5001760;28;20068;-43
2022/04/20 06:36:34;;;;;;;3.95;1.92;;;11.60;42.70;;;;;;4997418;28;20485;-42
2022/04/20 06:39:02;;;;;;;4.78;2.30;;;11.70;42.60;;;;;;5001596;28;20409;-42
2022/04/20 06:41:31;;;;;;;3.88;2.10;;;11.80;42.70;;;;;;5000123;28;20061;-42
2022/04/20 06:43:58;;;;;;;4.72;1.98;;;11.80;42.70;;;;;;4998788;28;20054;-43
2022/04/20 06:46:26;;;;;;;5.43;2.33;;;11.90;42.50;;;;;;5001134;28;20057;-44
2022/04/20 06:48:54;;;;;;;5.72;2.35;;;11.90;42.40;;;;;;4998062;28;20433;-44
2022/04/20 06:51:21;;;;;;;15.98;2.22;;;12.00;42.90;;;;;;5000060;28;20049;-44
2022/04/20 06:59:16;;;;;;;3.30;1.50;;;12.20;42.40;;;;;;4954691;28;20058;-43
2022/04/20 07:01:44;;;;;;;3.78;2.10;;;12.30;42.80;;;;;;4995754;28;20053;-43
2022/04/20 07:04:11;;;;;;;2.92;1.92;;;12.30;42.20;;;;;;4996896;28;20053;-42
2022/04/20 07:06:39;;;;;;;3.30;1.70;;;12.40;42.10;;;;;;4998976;28;20045;-42
2022/04/20 07:09:06;;;;;;;3.60;1.83;;;12.50;41.90;;;;;;4993048;28;20046;-42
2022/04/20 07:11:35;;;;;;;5.63;1.77;;;12.50;41.80;;;;;;4994686;28;20515;-45
2022/04/20 07:14:02;;;;;;;3.05;1.90;;;12.60;41.80;;;;;;4997645;28;20057;-43
2022/04/20 07:16:30;;;;;;;4.75;1.73;;;12.70;41.80;;;;;;5000841;28;20050;-43
2022/04/20 07:18:57;;;;;;;4.43;1.90;;;12.70;41.60;;;;;;5001257;28;20910;-42
2022/04/20 07:21:24;;;;;;;4.85;2.15;;;12.80;41.50;;;;;;4995113;28;20057;-43
2022/04/20 07:23:52;;;;;;;7.13;1.60;;;12.90;41.20;;;;;;4998782;28;20058;-44
2022/04/20 07:26:19;;;;;;;2.22;1.30;;;12.90;40.70;;;;;;4993766;28;20065;-43
2022/04/20 07:28:48;;;;;;;3.72;1.88;;;13.00;40.60;;;;;;4996424;28;20057;-43
2022/04/20 07:31:16;;;;;;;4.05;1.92;;;13.10;40.60;;;;;;4995490;28;20056;-43
2022/04/20 07:33:43;;;;;;;3.60;1.88;;;13.10;40.60;;;;;;4997305;28;20494;-43
2022/04/20 07:36:10;;;;;;;4.47;2.42;;;13.20;40.50;;;;;;5003403;28;20050;-43
2022/04/20 07:38:38;;;;;;;4.50;2.05;;;13.30;40.30;;;;;;5004255;28;20605;-42
2022/04/20 07:41:06;;;;;;;2.88;1.80;;;13.40;40.10;;;;;;5002008;28;20054;-42
2022/04/20 07:43:33;;;;;;;3.13;1.90;;;13.40;40.10;;;;;;4999740;28;20056;-43
2022/04/20 07:46:02;;;;;;;9.27;1.70;;;13.50;40.30;;;;;;5001778;28;20061;-44
2022/04/20 07:48:29;;;;;;;59.60;26.80;;;13.60;40.30;;;;;;4999210;28;20532;-44
2022/04/20 07:50:57;;;;;;;44.83;21.05;;;13.60;40.10;;;;;;4997281;28;20060;-43
2022/04/20 07:53:25;;;;;;;13.40;6.35;;;13.70;40.10;;;;;;4997372;28;20513;-46
2022/04/20 07:55:52;;;;;;;9.52;2.70;;;13.70;40.20;;;;;;4993557;28;20049;-44
2022/04/20 07:58:21;;;;;;;4.15;1.80;;;13.80;39.70;;;;;;4997372;28;20410;-43
2022/04/20 08:00:51;;;;;;;4.75;1.70;;;13.80;39.40;;;;;;5003800;28;20058;-45
2022/04/20 08:03:20;;;;;;;5.18;1.77;;;13.90;39.30;;;;;;4999623;28;20061;-42
2022/04/20 08:05:51;;;;;;;2.97;1.92;;;13.90;38.90;;;;;;5002624;28;20072;-42
2022/04/20 08:08:19;;;;;;;4.18;1.63;;;14.00;39.00;;;;;;5002423;28;20053;-44
2022/04/20 08:10:47;;;;;;;3.05;1.42;;;14.00;38.80;;;;;;5000358;28;20064;-43
2022/04/20 08:16:00;;;;;;;3.40;2.13;;;14.20;38.30;;;;;;4999708;28;20064;-43
2022/04/20 08:18:29;;;;;;;3.95;1.70;;;14.20;38.20;;;;;;5002952;28;20054;-43
2022/04/20 08:20:56;;;;;;;3.33;1.73;;;14.20;37.60;;;;;;5002331;28;20065;-43
2022/04/20 08:23:27;;;;;;;7.93;2.05;;;14.30;37.20;;;;;;5000680;28;20399;-45
2022/04/20 08:25:55;;;;;;;7.18;1.80;;;14.30;36.90;;;;;;4999139;28;20050;-42
2022/04/20 08:28:22;;;;;;;2.30;1.35;;;14.40;37.10;;;;;;5000316;28;20080;-44
2022/04/20 08:30:51;;;;;;;4.38;1.73;;;14.40;37.00;;;;;;5002765;28;20050;-45
2022/04/20 08:33:18;;;;;;;2.20;1.70;;;14.50;37.00;;;;;;5000541;28;20146;-43
2022/04/20 08:35:47;;;;;;;3.65;1.50;;;14.50;36.70;;;;;;5002614;28;20417;-43
2022/04/20 08:38:15;;;;;;;3.42;1.67;;;14.60;36.60;;;;;;5000212;28;20057;-42
2022/04/20 08:40:43;;;;;;;3.15;1.63;;;14.60;36.40;;;;;;4996686;28;20425;-43
2022/04/20 08:43:12;;;;;;;4.80;1.63;;;14.60;36.70;;;;;;4997488;28;20070;-42
2022/04/20 08:45:41;;;;;;;5.22;2.03;;;14.70;36.90;;;;;;5000696;28;20061;-43
2022/04/20 08:48:09;;;;;;;2.53;1.80;;;14.70;36.90;;;;;;5000713;28;20065;-43
2022/04/20 08:50:38;;;;;;;2.05;1.42;;;14.80;36.70;;;;;;5001867;28;20049;-43
2022/04/20 08:53:08;;;;;;;2.22;1.50;;;14.80;36.80;;;;;;4998984;28;20054;-44
2022/04/20 08:55:35;;;;;;;9.88;1.55;;;14.90;36.70;;;;;;4999347;28;20066;-45
2022/04/20 08:58:04;;;;;;;4.13;1.65;;;14.90;36.40;;;;;;4998545;28;20054;-46
2022/04/20 09:00:32;;;;;;;2.58;1.52;;;15.00;36.60;;;;;;4999578;28;20390;-43
2022/04/20 09:03:03;;;;;;;7.10;1.90;;;15.00;36.40;;;;;;4999774;28;20061;-43
2022/04/20 09:05:32;;;;;;;2.20;1.42;;;15.10;36.30;;;;;;4998261;28;20049;-44
2022/04/20 09:08:08;;;;;;;7.38;1.80;;;15.10;35.90;;;;;;4993787;28;20096;-44
2022/04/20 09:10:37;;;;;;;3.45;1.50;;;15.20;35.70;;;;;;4997957;28;20053;-43
2022/04/20 09:13:07;;;;;;;2.50;1.58;;;15.20;35.50;;;;;;4990100;28;20057;-42
2022/04/20 09:15:37;;;;;;;3.78;1.60;;;15.20;35.80;;;;;;4996733;28;20049;-43
2022/04/20 09:18:05;;;;;;;3.53;1.38;;;15.30;35.80;;;;;;4995969;28;20057;-43
2022/04/20 09:20:34;;;;;;;3.65;1.73;;;15.40;36.20;;;;;;4998672;28;20057;-42
2022/04/20 09:23:02;;;;;;;5.47;1.80;;;15.40;35.80;;;;;;4996433;28;20062;-43
2022/04/20 09:25:31;;;;;;;2.97;1.45;;;15.40;35.60;;;;;;4999692;28;20054;-42
2022/04/20 09:28:01;;;;;;;3.08;1.58;;;15.50;35.40;;;;;;4995629;28;20049;-43
2022/04/20 09:30:34;;;;;;;2.95;1.60;;;15.50;35.70;;;;;;4998381;28;20064;-43
2022/04/20 09:33:06;;;;;;;3.78;1.45;;;15.60;35.80;;;;;;4996644;28;20058;-43
2022/04/20 09:35:42;;;;;;;4.18;2.03;;;15.60;35.60;;;;;;5000304;28;21267;-43
2022/04/20 09:38:10;;;;;;;5.68;1.63;;;15.70;35.20;;;;;;4997785;28;20072;-43
2022/04/20 09:40:39;;;;;;;3.08;1.63;;;15.70;35.40;;;;;;4994949;28;20060;-43
2022/04/20 09:43:09;;;;;;;3.25;1.40;;;15.80;35.50;;;;;;4992663;28;20813;-43
2022/04/20 09:45:37;;;;;;;5.05;1.88;;;15.80;35.30;;;;;;4999126;28;20505;-43
2022/04/20 09:51:12;;;;;;;2.55;1.30;;;15.90;34.70;;;;;;4998984;28;20804;-44
2022/04/20 09:53:40;;;;;;;2.75;1.30;;;16.00;34.90;;;;;;4996106;28;20054;-43
2022/04/20 09:56:21;;;;;;;2.38;1.63;;;16.00;35.10;;;;;;4998623;28;20057;-44
2022/04/20 09:58:59;;;;;;;4.57;1.60;;;16.00;34.70;;;;;;4999532;28;20478;-43
2022/04/20 10:01:30;;;;;;;2.70;1.50;;;16.10;35.30;;;;;;4995949;28;20054;-45
2022/04/20 10:03:59;;;;;;;2.25;1.38;;;16.10;34.80;;;;;;4998007;28;20072;-43
2022/04/20 10:06:27;;;;;;;4.70;1.55;;;16.20;34.70;;;;;;4994165;28;20054;-43
2022/04/20 10:08:54;;;;;;;2.70;1.48;;;16.20;34.90;;;;;;4995653;28;20049;-45
2022/04/20 10:11:23;;;;;;;3.15;1.92;;;16.30;34.80;;;;;;4992372;28;20057;-42
2022/04/20 10:16:39;;;;;;;4.47;1.60;;;16.30;33.60;;;;;;4996706;28;20042;-43
2022/04/20 10:19:09;;;;;;;2.92;1.13;;;16.30;33.70;;;;;;4997613;28;20054;-42
2022/04/20 10:21:43;;;;;;;4.15;1.65;;;16.40;33.80;;;;;;4992280;28;20051;-45
2022/04/20 10:24:18;;;;;;;3.75;1.52;;;16.40;33.10;;;;;;4999426;28;20058;-46
2022/04/20 10:26:46;;;;;;;7.05;1.80;;;16.40;33.30;;;;;;4998452;28;20054;-43
2022/04/20 10:29:24;;;;;;;7.90;1.45;;;16.40;33.20;;;;;;5000195;28;20065;-42
2022/04/20 10:32:00;;;;;;;3.83;1.67;;;16.50;33.70;;;;;;4996557;28;20054;-46
2022/04/20 10:34:28;;;;;;;4.57;1.38;;;16.50;33.20;;;;;;5000795;28;20050;-43
2022/04/20 10:37:00;;;;;;;4.65;1.42;;;16.60;33.30;;;;;;4993277;28;20820;-43
2022/04/20 10:39:34;;;;;;;2.33;1.33;;;16.60;33.50;;;;;;4998358;28;20049;-43
2022/04/20 10:42:20;;;;;;;3.25;1.90;;;16.60;33.60;;;;;;4996195;28;20410;-42
2022/04/20 10:45:05;;;;;;;3.00;1.60;;;16.60;33.10;;;;;;4995251;28;20054;-43
2022/04/20 10:47:35;;;;;;;2.80;1.38;;;16.60;33.90;;;;;;4991216;28;20050;-42
2022/04/20 10:50:17;;;;;;;3.85;1.50;;;16.70;33.70;;;;;;4972893;28;20057;-43
2022/04/20 10:52:50;;;;;;;4.03;1.48;;;16.70;33.60;;;;;;4992325;28;20425;-42
2022/04/20 10:55:17;;;;;;;2.38;1.40;;;16.80;33.40;;;;;;4990773;28;20453;-42
2022/04/20 10:57:46;;;;;;;2.67;1.55;;;16.80;33.70;;;;;;4997345;28;20785;-42
2022/04/20 11:00:33;;;;;;;2.97;1.52;;;16.80;33.60;;;;;;4991438;28;20282;-43
2022/04/20 11:03:03;;;;;;;4.65;1.70;;;16.90;33.40;;;;;;4993703;28;20725;-47
2022/04/20 11:05:31;;;;;;;3.40;1.65;;;16.90;33.00;;;;;;4985504;28;20065;-45
2022/04/20 11:08:03;;;;;;;5.32;1.48;;;17.00;33.20;;;;;;4987542;28;20054;-42
2022/04/20 11:10:31;;;;;;;5.18;1.52;;;17.00;33.00;;;;;;4999252;28;20058;-43
2022/04/20 11:19:07;;;;;;;2.83;1.50;;;17.10;32.00;;;;;;4993557;28;20065;-48
2022/04/20 11:21:35;;;;;;;4.40;1.48;;;17.10;32.10;;;;;;4985939;28;20433;-43
2022/04/20 11:24:06;;;;;;;5.47;1.45;;;17.10;32.30;;;;;;4993952;28;20050;-43
2022/04/20 11:26:37;;;;;;;1.95;1.33;;;17.10;32.30;;;;;;4995572;28;20053;-42
2022/04/20 11:29:10;;;;;;;1.23;1.10;;;17.10;32.30;;;;;;4991208;28;20057;-46
2022/04/20 11:31:42;;;;;;;4.90;1.50;;;17.20;32.30;;;;;;4992985;28;20053;-42
2022/04/20 11:34:10;;;;;;;2.67;1.58;;;17.20;31.90;;;;;;4992424;28;20058;-43
2022/04/20 11:36:43;;;;;;;1.73;1.08;;;17.20;32.00;;;;;;4986524;28;20058;-45
2022/04/20 11:39:11;;;;;;;3.08;1.48;;;17.30;32.10;;;;;;4993796;28;20414;-45
2022/04/20 11:41:38;;;;;;;4.70;1.38;;;17.30;31.60;;;;;;4997653;28;20529;-43
2022/04/20 11:44:20;;;;;;;3.83;1.33;;;17.30;31.30;;;;;;4996365;28;20508;-42
2022/04/20 11:46:49;;;;;;;3.65;1.77;;;17.30;31.20;;;;;;4994607;28;20494;-43
2022/04/20 11:49:17;;;;;;;4.03;1.48;;;17.40;31.20;;;;;;4995545;28;20529;-44
2022/04/20 11:51:53;;;;;;;2.35;1.40;;;17.40;31.20;;;;;;4997895;28;20434;-43
2022/04/20 11:54:21;;;;;;;4.78;1.50;;;17.40;31.30;;;;;;5000753;28;20054;-43
2022/04/20 11:56:48;;;;;;;3.75;1.30;;;17.40;31.60;;;;;;4999489;28;20061;-42
2022/04/20 11:59:19;;;;;;;5.20;1.27;;;17.40;31.90;;;;;;5002306;28;20465;-42
2022/04/20 12:01:48;;;;;;;2.63;1.20;;;17.50;31.60;;;;;;4992739;28;20073;-43
2022/04/20 12:04:18;;;;;;;3.33;1.10;;;17.50;31.00;;;;;;4998214;28;20409;-43
2022/04/20 12:06:48;;;;;;;5.30;1.35;;;17.50;30.70;;;;;;5001464;28;20062;-43
2022/04/20 12:09:16;;;;;;;1.48;1.10;;;17.50;30.70;;;;;;4999700;28;20812;-42
2022/04/20 12:11:44;;;;;;;2.67;1.15;;;17.50;30.80;;;;;;4996217;28;20524;-43
2022/04/20 12:14:12;;;;;;;2.03;1.23;;;17.50;30.70;;;;;;4992944;28;20061;-44
2022/04/20 12:16:41;;;;;;;2.53;1.00;;;17.50;30.40;;;;;;4991388;28;20054;-42
2022/04/20 12:19:11;;;;;;;2.13;1.00;;;17.60;30.50;;;;;;4989045;28;20050;-42
2022/04/20 12:21:41;;;;;;;2.13;1.30;;;17.60;30.50;;;;;;4997435;28;20070;-46
2022/04/20 12:24:11;;;;;;;1.10;0.95;;;17.70;30.70;;;;;;4988127;28;20666;-42
2022/04/20 12:26:42;;;;;;;8.75;1.52;;;17.70;30.40;;;;;;4993192;28;20088;-42
2022/04/20 12:29:11;;;;;;;2.88;1.17;;;17.70;30.60;;;;;;4994842;28;20057;-45
2022/04/20 12:31:43;;;;;;;2.75;1.10;;;17.70;30.60;;;;;;4989711;28;20054;-45
2022/04/20 12:34:15;;;;;;;2.10;1.05;;;17.70;30.10;;;;;;4991369;28;20054;-42
2022/04/20 12:36:57;;;;;;;6.18;1.23;;;17.80;30.90;;;;;;4995878;28;20064;-43
2022/04/20 12:39:30;;;;;;;3.20;1.10;;;17.80;30.70;;;;;;4991309;28;20057;-42
2022/04/20 12:41:59;;;;;;;2.80;1.30;;;17.80;31.00;;;;;;4996192;28;21193;-42
2022/04/20 12:44:53;;;;;;;2.03;1.15;;;17.90;30.70;;;;;;4999327;28;20053;-42
2022/04/20 12:47:40;;;;;;;3.70;1.00;;;17.90;30.00;;;;;;4998683;28;20509;-43
2022/04/20 12:50:34;;;;;;;2.53;1.27;;;17.90;29.90;;;;;;4992856;28;20395;-43
2022/04/20 12:53:02;;;;;;;2.97;1.00;;;18.00;30.10;;;;;;4998690;28;20066;-42
2022/04/20 12:55:40;;;;;;;3.35;1.70;;;18.00;30.10;;;;;;4999935;28;20053;-44
2022/04/20 13:03:46;;;;;;;1.95;1.00;;;18.10;30.50;;;;;;5005863;28;20049;-42
2022/04/20 13:06:15;;;;;;;1.98;1.35;;;18.10;30.40;;;;;;4994911;28;20056;-43
2022/04/20 13:08:45;;;;;;;3.03;1.40;;;18.20;30.10;;;;;;4998238;28;20053;-44
2022/04/20 13:11:14;;;;;;;4.80;1.52;;;18.20;30.30;;;;;;4995187;28;20065;-43
2022/04/20 13:13:42;;;;;;;3.58;1.40;;;18.20;30.40;;;;;;4995020;28;20514;-42
2022/04/20 13:16:10;;;;;;;4.70;1.50;;;18.20;30.30;;;;;;4999405;28;20061;-44
2022/04/20 13:18:39;;;;;;;1.83;1.30;;;18.30;30.00;;;;;;4993115;28;20532;-45
2022/04/20 13:21:06;;;;;;;1.58;1.20;;;18.30;29.60;;;;;;4996768;28;20050;-44
2022/04/20 13:23:37;;;;;;;2.88;1.00;;;18.30;30.00;;;;;;4992363;28;20421;-43
2022/04/20 13:28:50;;;;;;;4.13;1.70;;;18.40;30.10;;;;;;4993806;28;20057;-43
2022/04/20 13:31:18;;;;;;;4.32;1.35;;;18.40;29.50;;;;;;4989860;28;20054;-43
2022/04/20 13:33:46;;;;;;;4.90;1.23;;;18.40;29.90;;;;;;4989913;28;20430;-42
2022/04/20 13:36:14;;;;;;;2.75;1.10;;;18.50;29.60;;;;;;4993294;28;20058;-46